Time;durP1;ratioP1;P1;durP2;ratioP2;P2;SDS_P1;SDS_P2;PMS_P1;PMS_P2;Temp;Humidity;BMP_temperature;BMP_pressure;BME280_temperature;BME280_humidity;BME280_pressure;Samples;Min_cycle;Max_cycle;Signal;HPM_P1;HPM_P2
2024/01/01 00:14:07;;;;;;;45.50;25.60;;;;;;;4.69;83.27;99251.66;135210;1252;107274;-85
2024/01/01 02:52:01;;;;;;;43.20;25.30;;;;;;;4.62;83.71;99202.04;135322;1252;107257;-83
2024/01/01 04:31:13;;;;;;;;;;;;;;;4.78;83.63;99185.45;135312;1252;107372;-83
2024/01/01 06:03:17;;;;;;;190.30;70.40;;;;;;;4.71;83.60;99158.95;135324;1252;107690;-84
2024/01/01 06:16:31;;;;;;;118.90;51.60;;;;;;;4.59;83.85;99151.04;135290;1252;107218;-83
2024/01/01 07:08:53;;;;;;;59.70;34.90;;;;;;;4.69;83.53;99172.38;135253;1252;107737;-83
2024/01/01 07:11:58;;;;;;;49.70;27.60;;;;;;;4.69;83.72;99169.70;135250;1253;107787;-84
2024/01/01 07:15:05;;;;;;;46.00;25.90;;;;;;;4.69;83.88;99171.45;135216;1252;107489;-83
2024/01/01 07:18:11;;;;;;;60.80;34.50;;;;;;;4.74;83.89;99178.11;135188;1252;107461;-83
2024/01/01 07:21:16;;;;;;;55.60;31.40;;;;;;;4.81;83.76;99175.27;135156;1252;107036;-84
2024/01/01 07:24:23;;;;;;;55.30;33.60;;;;;;;4.88;83.74;99168.64;135081;1252;107535;-83
2024/01/01 07:27:31;;;;;;;48.80;30.40;;;;;;;4.94;83.66;99168.85;135271;1252;107061;-83
2024/01/01 07:30:38;;;;;;;46.80;28.50;;;;;;;4.97;83.68;99167.08;135105;1253;110916;-84
2024/01/01 07:33:43;;;;;;;53.50;31.90;;;;;;;5.01;83.73;99162.00;135182;1253;106446;-84
2024/01/01 07:36:49;;;;;;;49.90;29.50;;;;;;;5.04;83.66;99163.48;135189;1252;109044;-84
2024/01/01 07:39:55;;;;;;;47.30;29.30;;;;;;;5.04;83.73;99160.80;135218;1252;107707;-84
2024/01/01 07:43:01;;;;;;;43.90;25.60;;;;;;;5.03;83.78;99150.84;135201;1252;107224;-83
2024/01/01 07:46:09;;;;;;;41.20;25.10;;;;;;;5.04;83.87;99147.80;135145;1252;108477;-82
2024/01/01 07:49:15;;;;;;;39.50;24.80;;;;;;;5.10;83.91;99147.71;135255;1251;108624;-83
2024/01/01 07:52:20;;;;;;;57.60;31.60;;;;;;;5.18;83.89;99145.43;135312;1251;107016;-84
2024/01/01 07:55:26;;;;;;;47.60;29.20;;;;;;;5.23;83.74;99142.80;135325;1251;106733;-83
2024/01/01 07:58:31;;;;;;;47.10;28.00;;;;;;;5.27;83.69;99144.34;135294;1251;108686;-84
2024/01/01 08:01:39;;;;;;;43.30;26.50;;;;;;;5.32;84.04;99144.95;135292;1251;106633;-85
2024/01/01 08:04:44;;;;;;;47.40;28.30;;;;;;;5.33;83.70;99143.83;135225;1252;108583;-83
2024/01/01 08:07:50;;;;;;;43.60;26.60;;;;;;;5.33;84.02;99147.86;135228;1252;108614;-83
2024/01/01 08:10:55;;;;;;;43.30;27.50;;;;;;;5.33;83.86;99146.77;135255;1251;107681;-83
2024/01/01 08:14:01;;;;;;;38.90;23.20;;;;;;;5.34;83.78;99144.61;135286;1251;105591;-80
2024/01/01 08:17:08;;;;;;;40.10;22.80;;;;;;;5.36;84.04;99144.10;135261;1251;107706;-80
2024/01/01 08:20:14;;;;;;;39.60;23.90;;;;;;;5.37;84.05;99150.96;135402;1251;108791;-80
2024/01/01 08:23:20;;;;;;;45.20;27.50;;;;;;;5.42;83.95;99151.16;135292;1253;108464;-80
2024/01/01 08:26:25;;;;;;;58.50;31.30;;;;;;;5.46;84.01;99154.48;135274;1251;107674;-81
2024/01/01 08:29:31;;;;;;;103.40;46.90;;;;;;;5.49;84.14;99157.23;135291;1251;108296;-79
2024/01/01 08:32:36;;;;;;;118.90;50.60;;;;;;;5.51;83.89;99155.63;135204;1253;107662;-80
2024/01/01 08:35:43;;;;;;;153.80;64.20;;;;;;;5.51;84.18;99164.42;135249;1253;106437;-79
2024/01/01 08:38:49;;;;;;;98.80;45.70;;;;;;;5.52;84.01;99167.21;135219;1253;108532;-79
2024/01/01 08:41:54;;;;;;;58.70;32.50;;;;;;;5.52;84.27;99171.42;135329;1251;107407;-80
2024/01/01 08:45:00;;;;;;;49.00;27.10;;;;;;;5.51;84.22;99171.67;135206;1251;106663;-79
2024/01/01 08:48:07;;;;;;;59.90;29.80;;;;;;;5.49;84.06;99168.88;135360;1252;107615;-80
2024/01/01 08:51:13;;;;;;;50.60;28.70;;;;;;;5.51;84.13;99165.89;135224;1252;106841;-80
2024/01/01 08:54:18;;;;;;;46.80;27.90;;;;;;;5.55;83.98;99169.96;135219;1252;107606;-80
2024/01/01 08:57:24;;;;;;;49.00;28.60;;;;;;;5.59;84.37;99169.84;135254;1252;107393;-80
2024/01/01 09:00:30;;;;;;;49.90;29.50;;;;;;;5.64;84.15;99170.96;135257;1252;107022;-80
2024/01/01 09:03:38;;;;;;;48.90;29.50;;;;;;;5.64;84.21;99171.48;135197;1252;106627;-80
2024/01/01 09:06:43;;;;;;;52.30;32.50;;;;;;;5.66;84.08;99174.87;135243;1252;108612;-80
2024/01/01 09:09:49;;;;;;;58.00;35.30;;;;;;;5.66;84.22;99175.55;135291;1252;108602;-80
2024/01/01 09:12:55;;;;;;;71.10;42.50;;;;;;;5.66;84.34;99174.86;135270;1253;107423;-80
2024/01/01 09:16:01;;;;;;;60.20;33.90;;;;;;;5.67;84.40;99174.27;135204;1252;106454;-79
2024/01/01 09:19:06;;;;;;;59.90;32.50;;;;;;;5.67;84.47;99166.60;135246;1253;107676;-79
2024/01/01 09:22:12;;;;;;;56.60;33.80;;;;;;;5.69;84.65;99165.57;135342;1251;108592;-79
2024/01/01 09:25:19;;;;;;;58.80;34.80;;;;;;;5.74;84.47;99160.68;135370;1251;106860;-80
2024/01/01 09:28:24;;;;;;;57.90;34.40;;;;;;;5.82;84.77;99159.41;135419;1251;108731;-79
2024/01/01 09:31:31;;;;;;;61.90;36.70;;;;;;;5.87;84.46;99159.70;135363;1251;108712;-79
2024/01/01 09:34:36;;;;;;;61.40;35.50;;;;;;;5.92;84.62;99159.14;135156;1252;108614;-79
2024/01/01 09:37:42;;;;;;;60.30;36.30;;;;;;;5.94;84.64;99158.20;135242;1252;107894;-79
2024/01/01 09:40:48;;;;;;;63.90;38.10;;;;;;;5.96;84.65;99154.20;135212;1252;107295;-80
2024/01/01 09:43:54;;;;;;;59.90;32.70;;;;;;;5.97;84.60;99152.27;135267;1252;107618;-79
2024/01/01 09:46:59;;;;;;;53.90;31.20;;;;;;;5.99;84.52;99144.22;135188;1253;108681;-80
2024/01/01 09:50:06;;;;;;;64.60;35.10;;;;;;;6.02;84.72;99147.41;135189;1253;108536;-79
2024/01/01 09:53:12;;;;;;;60.20;35.80;;;;;;;6.06;84.72;99145.55;135232;1253;107531;-81
2024/01/01 09:56:18;;;;;;;66.30;37.60;;;;;;;6.10;84.85;99141.80;135296;1252;107760;-80
2024/01/01 09:59:36;;;;;;;61.70;36.10;;;;;;;6.15;84.80;99136.39;135286;1252;107704;-79
2024/01/01 10:02:42;;;;;;;62.20;37.90;;;;;;;6.20;84.84;99133.23;135123;1251;107426;-78
2024/01/01 10:05:48;;;;;;;63.80;38.50;;;;;;;6.24;84.75;99130.56;135263;1252;108665;-79
2024/01/01 10:09:04;;;;;;;64.10;37.90;;;;;;;6.25;84.61;99126.54;135275;1252;108702;-78
2024/01/01 10:12:11;;;;;;;56.70;32.30;;;;;;;6.24;84.63;99121.20;135283;1251;108968;-78
2024/01/01 10:15:17;;;;;;;56.50;31.10;;;;;;;6.23;85.05;99120.02;135269;1251;107481;-81
2024/01/01 10:18:23;;;;;;;57.50;32.80;;;;;;;6.27;84.93;99116.32;135189;1251;106970;-85
2024/01/01 10:21:30;;;;;;;55.00;33.10;;;;;;;6.33;84.87;99114.02;135271;1252;107941;-83
2024/01/01 10:24:36;;;;;;;72.10;40.60;;;;;;;6.37;85.05;99108.83;135180;1253;107661;-84
2024/01/01 10:27:43;;;;;;;72.20;40.60;;;;;;;6.40;84.65;99104.37;135156;1253;108834;-84
2024/01/01 10:30:49;;;;;;;98.20;49.30;;;;;;;6.43;85.06;99107.94;135280;1252;107825;-84
2024/01/01 10:33:55;;;;;;;66.90;37.10;;;;;;;6.45;84.79;99112.20;135199;1252;108411;-82
2024/01/01 10:37:01;;;;;;;109.20;59.30;;;;;;;6.44;84.93;99110.16;135021;1252;142535;-84
2024/01/01 10:40:09;;;;;;;219.50;97.90;;;;;;;6.43;84.91;99110.69;135137;1252;108714;-83
2024/01/01 10:43:15;;;;;;;116.70;57.10;;;;;;;6.43;85.03;99110.89;135248;1251;107607;-84
2024/01/01 10:46:22;;;;;;;148.10;75.20;;;;;;;6.42;85.34;99115.48;135267;1251;108689;-83
2024/01/01 10:49:32;;;;;;;557.30;338.20;;;;;;;6.46;85.00;99115.88;135300;1252;108966;-84
2024/01/01 10:52:49;;;;;;;425.60;240.10;;;;;;;6.51;85.25;99107.55;135327;1251;108720;-82
2024/01/01 10:56:11;;;;;;;271.80;145.30;;;;;;;6.55;85.19;99105.35;135316;1251;107576;-82
2024/01/01 10:59:21;;;;;;;322.80;188.50;;;;;;;6.55;85.03;99108.17;135155;1252;107026;-81
2024/01/01 11:02:28;;;;;;;182.70;98.90;;;;;;;6.52;85.20;99115.34;135144;1253;107992;-80
2024/01/01 11:05:35;;;;;;;243.40;131.10;;;;;;;6.50;85.42;99114.70;135184;1253;105732;-82
2024/01/01 11:08:40;;;;;;;473.30;246.50;;;;;;;6.47;85.57;99110.60;135217;1253;108619;-78
2024/01/01 11:11:50;;;;;;;131.50;65.50;;;;;;;6.45;85.39;99107.61;135260;1252;107842;-79
2024/01/01 11:14:56;;;;;;;98.40;52.50;;;;;;;6.44;85.21;99106.17;135246;1253;108606;-80
2024/01/01 11:18:13;;;;;;;194.50;94.30;;;;;;;6.39;85.60;99103.42;135118;1251;107734;-80
2024/01/01 11:21:32;;;;;;;139.10;69.80;;;;;;;6.42;85.49;99102.42;135237;1252;107696;-80
2024/01/01 11:24:48;;;;;;;174.60;85.50;;;;;;;6.44;85.78;99104.36;135107;1253;106752;-80
2024/01/01 11:28:31;;;;;;;106.50;54.80;;;;;;;6.40;85.79;99105.30;135285;1253;107640;-80
2024/01/01 11:31:36;;;;;;;132.00;66.90;;;;;;;6.33;85.95;99097.86;135181;1253;106965;-80
2024/01/01 11:34:42;;;;;;;153.90;78.90;;;;;;;6.30;86.10;99093.94;135135;1253;106429;-81
2024/01/01 11:37:48;;;;;;;90.30;42.10;;;;;;;6.25;86.11;99093.23;135281;1253;108645;-80
2024/01/01 11:40:58;;;;;;;198.00;83.70;;;;;;;6.23;86.45;99093.94;135278;1253;107528;-80
2024/01/01 11:44:14;;;;;;;102.70;47.50;;;;;;;6.20;86.47;99091.00;135281;1253;106762;-80
2024/01/01 11:47:21;;;;;;;781.70;427.70;;;;;;;6.20;86.56;99091.91;135264;1252;107831;-79
2024/01/01 11:50:32;;;;;;;1079.10;483.50;;;;;;;6.26;86.53;99088.34;135170;1253;107806;-79
2024/01/01 11:53:37;;;;;;;521.00;187.60;;;;;;;6.32;86.45;99086.86;135232;1252;108603;-79
2024/01/01 11:56:45;;;;;;;92.50;40.80;;;;;;;6.37;86.74;99073.31;135230;1252;107828;-79
2024/01/01 11:59:51;;;;;;;386.20;190.20;;;;;;;6.34;86.61;99067.80;135182;1253;108822;-79
2024/01/01 12:02:57;;;;;;;98.50;53.50;;;;;;;6.33;86.92;99067.13;135118;1253;107742;-80
2024/01/01 12:06:05;;;;;;;258.50;132.60;;;;;;;6.31;86.85;99062.38;135249;1252;108671;-79
2024/01/01 12:09:12;;;;;;;215.00;105.30;;;;;;;6.39;87.11;99060.04;135216;1252;108618;-80
2024/01/01 12:12:18;;;;;;;421.90;223.90;;;;;;;6.47;86.96;99056.33;135245;1253;107642;-79
2024/01/01 12:15:30;;;;;;;116.80;53.60;;;;;;;6.52;86.91;99055.85;135239;1252;108274;-79
2024/01/01 12:18:36;;;;;;;46.10;26.00;;;;;;;6.52;86.80;99052.28;135178;1253;106347;-79
2024/01/01 12:21:43;;;;;;;74.80;40.50;;;;;;;6.53;86.83;99055.76;135159;1253;106982;-79
2024/01/01 12:24:58;;;;;;;66.30;37.70;;;;;;;6.57;87.06;99057.70;135250;1253;108352;-79
2024/01/01 12:28:05;;;;;;;57.60;34.60;;;;;;;6.61;87.03;99055.41;135297;1253;107787;-79
2024/01/01 12:31:11;;;;;;;51.80;31.70;;;;;;;6.63;87.02;99057.02;135138;1254;108344;-79
2024/01/01 12:34:18;;;;;;;42.60;25.40;;;;;;;6.65;87.10;99054.90;135117;1253;107920;-79
2024/01/01 12:37:23;;;;;;;38.00;23.30;;;;;;;6.61;87.10;99057.39;135232;1252;108664;-79
2024/01/01 12:40:29;;;;;;;35.10;23.00;;;;;;;6.62;87.05;99057.70;135176;1252;108713;-79
2024/01/01 12:43:35;;;;;;;30.20;18.20;;;;;;;6.57;87.29;99052.00;135189;1252;108432;-79
2024/01/01 12:46:40;;;;;;;32.70;19.80;;;;;;;6.54;87.22;99046.95;135172;1252;108702;-79
2024/01/01 12:49:46;;;;;;;30.90;18.50;;;;;;;6.56;87.49;99049.06;135155;1253;107609;-79
2024/01/01 12:53:19;;;;;;;32.90;20.00;;;;;;;6.56;87.36;99043.19;135161;1253;106616;-79
2024/01/01 12:56:23;;;;;;;;;;;;;;;6.50;87.74;99045.05;135234;1251;106819;-79
2024/01/01 12:59:29;;;;;;;33.20;20.20;;;;;;;6.47;87.67;99041.92;135286;1254;105667;-79
2024/01/01 13:02:36;;;;;;;36.40;21.50;;;;;;;6.38;88.14;99039.11;135241;1252;107315;-80
2024/01/01 13:05:42;;;;;;;33.00;20.00;;;;;;;6.30;88.14;99037.94;135174;1252;106686;-79
2024/01/01 13:08:49;;;;;;;29.60;17.70;;;;;;;6.22;88.08;99037.98;135215;1253;108419;-79
2024/01/01 13:11:55;;;;;;;33.70;19.30;;;;;;;6.20;88.67;99035.77;135233;1253;106356;-79
2024/01/01 13:15:00;;;;;;;31.20;19.70;;;;;;;6.19;88.38;99039.61;135173;1252;106997;-79
2024/01/01 13:18:06;;;;;;;102.90;46.80;;;;;;;6.25;88.55;99040.15;135159;1253;106590;-79
2024/01/01 13:21:12;;;;;;;177.00;71.40;;;;;;;6.29;88.20;99037.55;135148;1253;107492;-79
2024/01/01 13:24:18;;;;;;;326.20;115.20;;;;;;;6.29;88.45;99037.46;135199;1253;107610;-79
2024/01/01 13:27:23;;;;;;;117.60;44.10;;;;;;;6.29;88.59;99035.05;135212;1252;107017;-79
2024/01/01 13:30:29;;;;;;;597.70;240.70;;;;;;;6.31;88.05;99029.16;135242;1253;107730;-79
2024/01/01 13:33:35;;;;;;;80.20;36.00;;;;;;;6.35;88.42;99034.66;135190;1256;107501;-79
2024/01/01 13:36:40;;;;;;;272.10;92.30;;;;;;;6.35;88.24;99030.60;135162;1252;106259;-79
2024/01/01 13:39:46;;;;;;;591.80;226.00;;;;;;;6.40;88.37;99030.60;135157;1254;106334;-79
2024/01/01 13:42:52;;;;;;;597.80;227.30;;;;;;;6.43;88.29;99034.38;135151;1253;108702;-79
2024/01/01 13:45:57;;;;;;;664.70;254.20;;;;;;;6.46;88.03;99038.23;135197;1252;108332;-79
2024/01/01 13:49:04;;;;;;;233.50;75.70;;;;;;;6.46;88.66;99038.40;135140;1253;106761;-79
2024/01/01 13:52:09;;;;;;;363.50;115.90;;;;;;;6.42;88.18;99035.88;135273;1252;108769;-79
2024/01/01 13:55:19;;;;;;;498.80;187.90;;;;;;;6.41;88.53;99033.80;135214;1252;108405;-79
2024/01/01 13:58:25;;;;;;;413.20;143.50;;;;;;;6.42;88.34;99031.55;135157;1253;108328;-79
2024/01/01 14:01:37;;;;;;;421.20;145.10;;;;;;;6.44;88.60;99027.82;135147;1253;107563;-79
2024/01/01 14:04:43;;;;;;;448.40;158.90;;;;;;;6.45;88.39;99021.54;135256;1253;107015;-79
2024/01/01 14:07:49;;;;;;;430.50;151.50;;;;;;;6.48;88.54;99018.82;135219;1253;106377;-79
2024/01/01 14:10:54;;;;;;;558.20;208.90;;;;;;;6.49;88.44;99017.84;135206;1253;108457;-79
2024/01/01 14:14:00;;;;;;;490.10;186.10;;;;;;;6.48;88.22;99018.47;135162;1254;107688;-79
2024/01/01 14:17:05;;;;;;;460.40;179.80;;;;;;;6.48;88.37;99020.58;135206;1254;108413;-79
2024/01/01 14:20:14;;;;;;;284.60;101.50;;;;;;;6.49;88.38;99023.08;135127;1253;106249;-79
2024/01/01 14:23:19;;;;;;;270.30;102.90;;;;;;;6.53;88.23;99034.06;135258;1253;106440;-79
2024/01/01 14:26:25;;;;;;;412.40;171.80;;;;;;;6.53;88.12;99036.15;135162;1254;109279;-81
2024/01/01 14:29:30;;;;;;;364.60;137.40;;;;;;;6.51;88.29;99036.84;135154;1253;107813;-81
2024/01/01 14:32:36;;;;;;;257.90;98.80;;;;;;;6.51;88.21;99044.48;135092;1254;107577;-82
2024/01/01 14:35:44;;;;;;;461.90;178.10;;;;;;;6.47;88.23;99051.89;135024;1251;107724;-80
2024/01/01 14:38:50;;;;;;;411.20;154.60;;;;;;;6.39;88.28;99054.73;135147;1253;107510;-81
2024/01/01 14:41:55;;;;;;;364.00;138.70;;;;;;;6.37;88.31;99050.64;135199;1254;108706;-82
2024/01/01 14:45:01;;;;;;;210.60;84.40;;;;;;;6.35;88.49;99055.79;135135;1253;108623;-81
2024/01/01 14:48:08;;;;;;;333.80;129.10;;;;;;;6.30;88.56;99058.30;135121;1252;107697;-81
2024/01/01 14:51:15;;;;;;;129.60;56.30;;;;;;;6.28;88.51;99058.09;135194;1253;106828;-84
2024/01/01 14:54:21;;;;;;;391.50;210.00;;;;;;;6.24;88.47;99056.36;135108;1254;107139;-81
2024/01/01 14:57:27;;;;;;;116.30;63.40;;;;;;;6.21;88.33;99058.80;135116;1253;108517;-81
2024/01/01 15:00:32;;;;;;;93.20;55.50;;;;;;;6.20;88.57;99058.39;135161;1253;106438;-83
2024/01/01 15:03:38;;;;;;;64.50;37.00;;;;;;;6.20;88.75;99053.79;135173;1251;108910;-83
2024/01/01 15:06:43;;;;;;;58.70;32.70;;;;;;;6.22;88.56;99053.91;135310;1251;108530;-81
2024/01/01 15:09:49;;;;;;;41.50;24.20;;;;;;;6.25;88.63;99057.53;135230;1252;107609;-83
2024/01/01 15:12:55;;;;;;;41.10;23.50;;;;;;;6.26;88.65;99056.15;135172;1254;107683;-82
2024/01/01 15:16:00;;;;;;;40.20;20.50;;;;;;;6.26;88.27;99064.82;135195;1254;107765;-82
2024/01/01 15:19:06;;;;;;;33.50;18.10;;;;;;;6.24;88.28;99063.95;135105;1251;107710;-81
2024/01/01 15:22:12;;;;;;;35.50;17.80;;;;;;;6.23;88.43;99066.16;135115;1251;107305;-83
2024/01/01 15:25:17;;;;;;;37.90;19.20;;;;;;;6.24;88.67;99065.30;135212;1251;107520;-81
2024/01/01 15:28:23;;;;;;;36.90;19.00;;;;;;;6.28;88.57;99064.31;135215;1252;106641;-80
2024/01/01 15:31:29;;;;;;;31.80;18.00;;;;;;;6.28;88.57;99063.39;135184;1252;107551;-80
2024/01/01 15:34:36;;;;;;;337.60;165.20;;;;;;;6.25;88.45;99063.68;135159;1253;107690;-82
2024/01/01 15:37:41;;;;;;;437.10;196.10;;;;;;;6.25;88.20;99060.86;135151;1253;108639;-81
2024/01/01 15:40:47;;;;;;;960.20;478.40;;;;;;;6.23;88.66;99060.53;135134;1252;106511;-82
2024/01/01 15:43:52;;;;;;;546.90;206.80;;;;;;;6.22;88.60;99056.41;135200;1251;107508;-84
2024/01/01 15:46:58;;;;;;;471.90;160.80;;;;;;;6.21;88.61;99061.96;135232;1251;107628;-83
2024/01/01 15:50:04;;;;;;;1033.00;402.90;;;;;;;6.17;88.44;99054.98;135165;1253;108062;-83
2024/01/01 15:53:10;;;;;;;360.60;108.00;;;;;;;6.20;88.64;99071.27;135263;1251;108524;-80
2024/01/01 15:56:15;;;;;;;436.00;140.70;;;;;;;6.22;88.41;99080.27;135162;1252;107379;-81
2024/01/01 15:59:21;;;;;;;1258.80;497.10;;;;;;;6.16;88.29;99083.34;135145;1253;107740;-80
2024/01/01 16:02:27;;;;;;;1125.70;479.80;;;;;;;6.14;88.74;99087.55;135193;1253;108638;-80
2024/01/01 16:05:33;;;;;;;686.50;277.30;;;;;;;6.11;88.74;99092.79;135220;1253;108705;-79
2024/01/01 16:08:39;;;;;;;440.60;180.20;;;;;;;6.08;88.53;99094.71;135224;1253;107525;-80
2024/01/01 16:11:44;;;;;;;197.20;85.10;;;;;;;6.07;88.60;99096.42;135195;1250;108508;-80
2024/01/01 16:14:50;;;;;;;248.60;105.50;;;;;;;6.06;88.79;99089.91;135251;1252;106783;-81
2024/01/01 16:17:56;;;;;;;161.60;71.80;;;;;;;6.08;88.84;99094.84;135188;1251;108710;-79
2024/01/01 16:21:01;;;;;;;132.80;62.30;;;;;;;6.08;88.81;99095.23;135168;1251;107059;-84
2024/01/01 16:24:07;;;;;;;121.80;73.00;;;;;;;6.03;88.58;99094.15;135227;1251;108639;-84
2024/01/01 16:27:13;;;;;;;83.40;48.70;;;;;;;6.02;88.52;99096.18;135265;1251;106970;-80
2024/01/01 16:30:19;;;;;;;156.40;82.90;;;;;;;5.99;88.71;99098.45;135261;1251;107851;-80
2024/01/01 20:05:27;;;;;;;39.30;23.70;;;;;;;6.12;89.35;99207.17;135255;1248;107345;-80
2024/01/01 20:08:32;;;;;;;31.60;15.40;;;;;;;6.07;89.30;99210.30;135288;1251;108166;-80
2024/01/01 20:11:38;;;;;;;28.50;14.40;;;;;;;6.02;89.67;99218.36;135269;1251;108468;-80
2024/01/01 20:14:45;;;;;;;31.70;15.90;;;;;;;6.03;89.26;99220.52;135268;1251;108468;-81
2024/01/01 20:17:50;;;;;;;29.10;15.00;;;;;;;6.07;89.63;99220.70;135212;1251;106430;-80
2024/01/01 20:20:56;;;;;;;29.60;15.30;;;;;;;6.11;89.31;99221.52;135313;1251;108589;-80
2024/01/01 20:24:02;;;;;;;27.40;15.60;;;;;;;6.11;89.30;99225.10;135301;1251;106013;-80
2024/01/01 20:27:08;;;;;;;29.50;16.20;;;;;;;6.07;89.15;99223.47;135309;1251;108670;-80
2024/01/01 20:30:14;;;;;;;28.70;15.10;;;;;;;6.02;89.12;99229.45;135268;1251;107585;-80
2024/01/01 20:33:20;;;;;;;27.40;14.60;;;;;;;6.00;89.47;99226.48;135246;1251;107006;-80
2024/01/01 20:36:26;;;;;;;36.10;17.70;;;;;;;6.03;89.55;99227.23;135241;1253;107929;-80
2024/01/01 20:39:32;;;;;;;31.10;16.80;;;;;;;6.06;89.56;99226.55;135216;1253;108770;-80
2024/01/01 20:42:38;;;;;;;35.80;18.30;;;;;;;6.12;89.44;99229.75;135231;1253;108621;-80
2024/01/01 20:45:45;;;;;;;36.50;18.20;;;;;;;6.16;89.39;99223.17;135247;1252;108415;-79
2024/01/01 20:48:50;;;;;;;29.80;16.30;;;;;;;6.17;89.49;99226.06;135151;1252;108707;-81
2024/01/01 20:51:56;;;;;;;29.90;16.10;;;;;;;6.15;89.32;99222.56;135198;1255;106311;-79
2024/01/01 20:55:02;;;;;;;28.90;14.40;;;;;;;6.08;89.01;99223.05;135195;1256;107576;-80
2024/01/01 20:58:08;;;;;;;22.80;12.50;;;;;;;6.00;89.13;99225.95;135286;1251;106722;-80
2024/01/01 21:01:13;;;;;;;24.80;13.20;;;;;;;5.97;89.32;99227.48;135261;1251;107095;-79
2024/01/01 21:04:19;;;;;;;26.90;13.40;;;;;;;5.96;89.41;99230.75;135235;1253;106328;-79
2024/01/01 21:07:25;;;;;;;26.90;14.20;;;;;;;5.98;89.21;99230.95;135168;1253;106502;-79
2024/01/01 21:10:30;;;;;;;26.10;13.20;;;;;;;5.97;89.56;99235.27;135269;1251;109471;-79
2024/01/01 21:13:37;;;;;;;28.00;15.00;;;;;;;5.92;89.16;99234.44;135269;1251;108550;-79
2024/01/01 21:16:42;;;;;;;20.60;11.80;;;;;;;5.84;89.12;99239.45;135368;1251;107684;-80
2024/01/01 21:19:48;;;;;;;21.50;11.40;;;;;;;5.77;89.53;99242.92;135318;1251;106731;-79
2024/01/01 21:22:54;;;;;;;20.10;11.50;;;;;;;5.76;89.40;99245.54;135311;1251;106669;-80
2024/01/01 21:26:00;;;;;;;24.20;12.60;;;;;;;5.75;89.39;99250.58;135263;1251;107470;-80
2024/01/01 21:29:06;;;;;;;23.00;12.50;;;;;;;5.74;89.35;99251.34;135331;1251;109299;-79
2024/01/01 21:32:12;;;;;;;22.60;12.90;;;;;;;5.73;89.43;99256.58;135278;1251;108664;-79
2024/01/01 21:35:18;;;;;;;22.50;11.90;;;;;;;5.63;89.11;99257.19;135230;1253;108833;-79
2024/01/01 21:38:25;;;;;;;23.60;11.20;;;;;;;5.58;89.45;99262.08;135246;1253;107685;-80
2024/01/01 21:41:30;;;;;;;20.90;10.50;;;;;;;5.55;89.35;99259.70;135214;1251;107745;-79
2024/01/01 21:44:36;;;;;;;22.80;11.20;;;;;;;5.54;89.27;99262.48;135230;1251;107078;-78
2024/01/01 21:47:42;;;;;;;21.80;11.90;;;;;;;5.54;89.57;99258.36;135265;1251;107701;-78
2024/01/01 21:50:47;;;;;;;19.20;10.50;;;;;;;5.56;89.61;99256.41;135290;1251;107571;-79
2024/01/01 21:53:53;;;;;;;17.90;10.70;;;;;;;5.55;89.47;99256.19;135293;1251;109115;-79
2024/01/01 21:56:59;;;;;;;18.40;9.70;;;;;;;5.52;89.14;99255.92;135312;1251;108478;-79
2024/01/01 22:00:05;;;;;;;21.60;9.20;;;;;;;5.47;89.10;99257.22;135234;1251;106702;-79
2024/01/01 22:03:16;;;;;;;16.10;8.60;;;;;;;5.45;89.40;99258.54;135280;1251;107653;-78
2024/01/01 22:06:23;;;;;;;17.30;9.40;;;;;;;5.43;89.27;99257.31;135264;1254;106602;-78
2024/01/01 22:09:29;;;;;;;16.50;8.80;;;;;;;5.41;89.20;99254.48;135177;1253;106552;-78
2024/01/01 22:12:34;;;;;;;17.70;9.50;;;;;;;5.37;89.29;99253.77;135205;1252;107778;-78
2024/01/01 22:15:40;;;;;;;17.40;9.00;;;;;;;5.36;89.26;99261.33;135239;1253;108653;-78
2024/01/01 22:18:45;;;;;;;17.90;9.40;;;;;;;5.34;89.22;99259.96;135213;1252;109133;-79
2024/01/01 22:21:51;;;;;;;17.40;9.70;;;;;;;5.29;89.13;99260.94;135238;1254;107587;-78
2024/01/01 22:24:57;;;;;;;17.50;8.10;;;;;;;5.24;89.11;99265.79;135189;1253;108621;-78
2024/01/01 22:28:02;;;;;;;14.80;7.90;;;;;;;5.19;88.88;99267.64;135330;1251;107780;-78
2024/01/01 22:31:08;;;;;;;18.00;8.30;;;;;;;5.17;89.28;99263.61;135301;1251;106304;-78
2024/01/01 22:34:14;;;;;;;17.40;8.40;;;;;;;5.16;89.12;99258.45;135226;1251;108624;-78
2024/01/01 22:37:20;;;;;;;17.30;8.90;;;;;;;5.16;89.18;99260.70;135188;1251;117048;-78
2024/01/01 22:40:25;;;;;;;16.40;8.90;;;;;;;5.14;88.94;99255.42;135266;1251;107262;-78
2024/01/01 22:43:32;;;;;;;16.70;8.50;;;;;;;5.10;89.17;99254.55;135307;1251;107756;-78
2024/01/01 22:46:38;;;;;;;36.10;18.80;;;;;;;5.09;89.30;99256.42;135302;1251;107678;-78
2024/01/01 22:49:43;;;;;;;38.10;15.50;;;;;;;5.03;89.06;99254.81;135298;1251;107606;-78
2024/01/01 22:52:49;;;;;;;19.40;8.70;;;;;;;5.00;89.24;99253.52;135225;1251;107714;-78
2024/01/01 22:55:55;;;;;;;25.00;10.30;;;;;;;4.99;89.34;99258.90;135269;1251;106614;-78
2024/01/01 22:59:01;;;;;;;18.30;8.70;;;;;;;5.00;89.08;99257.98;135298;1251;106411;-78
2024/01/01 23:02:06;;;;;;;16.70;8.70;;;;;;;5.01;89.19;99259.98;135402;1249;106552;-79
2024/01/01 23:05:12;;;;;;;16.50;8.00;;;;;;;5.01;89.12;99262.46;135527;1250;108257;-78
2024/01/01 23:08:18;;;;;;;16.80;8.10;;;;;;;5.00;89.18;99263.44;135629;1249;107035;-78
2024/01/01 23:11:24;;;;;;;14.50;7.70;;;;;;;5.01;89.42;99265.95;135584;1249;107636;-78
2024/01/01 23:14:29;;;;;;;15.50;7.10;;;;;;;5.04;89.60;99270.76;135541;1250;108667;-78
2024/01/01 23:17:35;;;;;;;15.90;7.10;;;;;;;5.10;89.53;99272.13;135528;1250;108685;-78
2024/01/01 23:20:42;;;;;;;18.00;8.70;;;;;;;5.17;89.75;99275.60;135510;1250;108604;-78
2024/01/01 23:23:48;;;;;;;15.10;7.60;;;;;;;5.25;89.98;99271.67;135579;1249;108540;-78
2024/01/01 23:26:54;;;;;;;14.10;7.80;;;;;;;5.34;89.68;99273.10;135560;1250;108204;-78
2024/01/01 23:29:59;;;;;;;17.10;8.50;;;;;;;5.44;89.68;99274.70;135359;1250;108789;-78
2024/01/01 23:33:06;;;;;;;17.30;9.20;;;;;;;5.51;89.59;99272.20;135555;1249;106952;-78
2024/01/01 23:36:12;;;;;;;15.70;7.40;;;;;;;5.55;89.82;99269.55;135742;1249;107624;-78
2024/01/01 23:39:18;;;;;;;14.20;7.00;;;;;;;5.57;89.72;99268.13;135737;1249;107637;-78
2024/01/01 23:42:24;;;;;;;19.30;9.00;;;;;;;5.62;89.64;99268.41;135669;1249;107706;-78
2024/01/01 23:45:29;;;;;;;14.30;7.80;;;;;;;5.67;89.76;99266.53;135512;1249;108286;-78
2024/01/01 23:48:35;;;;;;;14.20;6.90;;;;;;;5.75;89.92;99264.02;135499;1250;108398;-78
2024/01/01 23:51:41;;;;;;;16.80;7.60;;;;;;;5.81;89.93;99266.39;135534;1249;108389;-78
2024/01/01 23:54:46;;;;;;;15.20;6.80;;;;;;;5.85;89.83;99259.84;135600;1249;108342;-78
2024/01/01 23:57:52;;;;;;;15.30;7.10;;;;;;;5.84;90.03;99257.80;135571;1250;106906;-78
